India Meteorological Department
Airport METARs
Date : 24-04-2019
Sl. # Airport METAR
1 Agartala VEAT 240100Z 00000KT 2000 BR NSC 25/21 Q1010 BECMG 3000 BR=
2 Ahmedabad VAAH 240030Z 31005KT 4000 FU NSC 29/14 Q1009 TEMPO 3000=
3 Allahabad VEAB 240100Z 10004KT 5000 HZ SKC 28/20 Q1009 NOSIG=
4 Amritsar VIAR 240130Z 08007KT 3500 HZ FEW040 SCT100 23/18 Q1010 BECMG 5000=
5 Aurangabad VAAU 240000Z 34003KT 4000 HZ NSC 28/11 Q1012 NOSIG=
6 Bangalore VOBL 240130Z 00000KT 6000 FEW015 SCT080 23/22 Q1016 NOSIG=
7 Baroda VABO 240130Z 22003KT 6000 NSC 28/18 Q1010 NOSIG=
8 Bhopal VABP 240130Z 27007KT 6000 NSC 27/09 Q1012 NOSIG=
9 Bhubaneswar VEBS 240130Z 00000KT 2000 BR FEW020 27/26 Q1010 BECMG 3000 BR=
10 Bhuntar VIBR 240130Z 00000KT 6000 SCT030 BKN080 15/14 Q1019=
11 Chennai VOMM 240130Z 27003KT 5000 BR SCT020 SCT100 31/27 Q1011 NOSIG=
12 Coimbatore VOCB 240130Z VRB03KT 4000 BR FEW015 BKN080 26/21 Q1013 NOSIG=
13 Colombo VCBI 240140Z 00000KT 9000 NSC 25/24 Q1010 NOSIG=
14 Delhi VIDP 240130Z 16006KT 3000 HZ FEW040 SCT100 30/18 Q1009 NOSIG=
15 Dehradun VIDN 240130Z 02004KT 3000 HZ NSC 24/18 Q1012 =
16 Gauhati VEGT 240130Z 00000KT 2500 BR FEW018 25/23 Q1012 NOSIG=
17 Gaya VEGY 240130Z NIL=
18 Gaggal VIGG 240130Z 33005KT 5000 HZ SCT035 BKN080 23/15 Q1015=
19 Goa VOGO 240000Z 35008KT 6000 FEW020 BKN100 27/25 Q1008 NOSIG=
20 Hyderabad VOHS 240130Z VRB05KT 6000 NSC 24/18 Q1014 NOSIG=
21 Indore VAID 240000Z 32003KT 5000 HZ NSC 27/04 Q1011 NOSIG=
22 Jabalpur VAJB 240130Z 14004KT 4000 HZ NSC 28/08 Q1011=
23 Jaipur VIJP 240130Z 33007KT 2500 HZ FEW035 SCT100 33/04 Q1010 NOSIG=
24 Kochi VOCI 240130Z 00000KT 3500 BR FEW015 BKN090 27/25 Q1009 NOSIG=
25 Kolkata VECC 240130Z 00000KT 3500 HZ FEW020 SCT100 27/25 Q1010 NOSIG=
26 Kozhikode VOCL 240130Z 07003KT 6000 FEW015 SCT080 25/23 Q1009 NOSIG=
27 Lucknow VILK 240130Z 10005KT 3000 HZ NSC 27/19 Q1009 NOSIG=
28 Madurai VOMD 240130Z 00000KT 5000 HZ SCT020 28/23 Q1011 NOSIG=
29 Mohanbari VEMN 240130Z 05006KT 4000 HZ NSC 24/19 Q1013 BECMG 5000 HZ=
30 Mumbai VABB 240130Z 35005KT 2500 BR FEW020 28/25 Q1010 NOSIG=
31 Nagpur VANP 240130Z 06004KT 4000 HZ NSC 29/12 Q1011 NOSIG=
32 Ozar VAOZ 240130Z 29006KT 6000 NSC 27/08 Q1013 BECMG 5000 HZ=
33 Patna VEPT 240130Z 09006KT 3500 HZ NSC 27/19 Q1009 NOSIG=
34 Raipur VERP 240130Z 23008KT 5000 HZ NSC 27/15 Q1011 NOSIG=
35 Shimla VISM 240130Z 00000KT 6000 HZ SCT100 21/13 Q1019=
36 Surat VASU 240130Z 00000KT 4000 HZ NSC 26/23 Q1010=
37 Ranchi VERC 240130Z 19004KT 4000 HZ NSC 24/17 Q1013 NOSIG=
38 Trichy VOTR 240130Z 09004KT 4000 BR FEW016 SCT100 28/25 Q1009 NOSIG=
39 Trivandrum VOTV 240130Z 02003KT 5000 HZ SCT015 BKN080 28/25 Q1009 NOSIG=
40 Udaipur VAUD 240100Z 00000KT 5000 HZ NSC 26/11 Q1012 NOSIG=
41 Varanasi VEBN 240130Z 08005KT 2500 HZ NSC 27/19 Q1008 NOSIG=
42 Vizag VOVZ 240130Z VRB02KT 4000 BR NSC 28/26 Q1010 NOSIG=
43 Male VRMM 240100Z 31007KT 9999 SCT018TCU BKN270 30/26 Q1009 NOSIG=
44 Gan VRMG 240100Z 29008KT 9999 FEW018 SCT120 BKN260 29/25 Q1009 NOSIG=
45 Kathmandu VNKT 240130Z NIL=
46 Dhaka VGHS 240130Z 09005KT 3200 HZ FEW015 SCT100 28/22 Q1011 NOSIG=
47 Colombo VCBI 240140Z 00000KT 9000 NSC 25/24 Q1010 NOSIG=
48 Karachi OPKC 240125Z 25009KT 5000 FU BKN020 26/23 Q1009 NOSIG=
49 Lahore OPLA 240125Z 05006KT 4000 FU SCT100 23/17 Q1010 RMK QFE984 RMK A29.81=
50 Leh VILH 240100Z VRB02KT 6000 SCT070 BKN150 07/-1 Q1028 NOSIG=
51 Sri Nagar VISR 240100Z VRB02KT 6000 SCT012 SCT018 BKN090 12/12 Q1025 NOSIG=
52 Jammu VIJU 240100Z 01010G20KT 6000 RERA SCT025 FEW030CB BKN090 25/22 Q1009 TEMPO TSRA=
53 Jodhpur VIJO 240100Z 26004KT 6000 SKC 30/06 Q1010 NOSIG=
54 Jaisalmer VIJR 240100Z 19004KT 6000 SKC 26/12 Q1009 NOSIG=
55 Bhuj-Rudra VABJ 240100Z 28004KT 6000 FEW020 24/21 Q1011 NOSIG=
56 Gorakhpur VEGK 240100Z 11007KT 5000 HZ SKC 25/20 Q1009 NOSIG=
57 Agra VIAG 240100Z 07003KT 5000 DU FEW030 27/18 Q1008 NOSIG=
58 Bagdogra VEBD 240100Z VRB02KT 6000 FEW250 24/20 Q1012 NOSIG=
59 Gwalior VIGR 240100Z 00000KT 4000 DU FEW100 26/15 Q1008 NOSIG=
60 Pune VAPO 240100Z 27004KT 6000 FEW030 SCT090 25/07 Q1014 NOSIG=
61 Chandigarh VICG 240100Z 10004KT 5000 DU SCT250 27/17 Q1010 NOSIG=
62 Jamnagar VAJM 240100Z 28005KT 6000 FEW015 25/23 Q1010 NOSIG=

 

--- End of List ---